sensor_id;sensor_type;location;lat;lon;timestamp;pressure;altitude;pressure_sealevel;temperature;humidity
32033;BME280;31720;52.638;9.216;2023-01-24T00:01:56;103696.25;;;2.26;100.00
32033;BME280;31720;52.638;9.216;2023-01-24T00:04:57;103694.53;;;2.26;100.00
32033;BME280;31720;52.638;9.216;2023-01-24T00:07:58;103688.59;;;2.31;100.00
32033;BME280;31720;52.638;9.216;2023-01-24T00:11:01;103698.94;;;2.29;100.00
32033;BME280;31720;52.638;9.216;2023-01-24T00:14:02;103692.06;;;2.31;100.00
32033;BME280;31720;52.638;9.216;2023-01-24T00:17:05;103692.06;;;2.31;100.00
32033;BME280;31720;52.638;9.216;2023-01-24T00:20:09;103680.75;;;2.27;100.00
32033;BME280;31720;52.638;9.216;2023-01-24T00:23:10;103680.66;;;2.24;100.00
32033;BME280;31720;52.638;9.216;2023-01-24T00:26:12;103675.44;;;2.23;100.00
32033;BME280;31720;52.638;9.216;2023-01-24T00:29:13;103677.25;;;2.27;100.00
32033;BME280;31720;52.638;9.216;2023-01-24T00:32:16;103681.63;;;2.28;100.00
32033;BME280;31720;52.638;9.216;2023-01-24T00:35:17;103682.50;;;2.28;100.00
32033;BME280;31720;52.638;9.216;2023-01-24T00:38:19;103685.84;;;2.24;100.00
32033;BME280;31720;52.638;9.216;2023-01-24T00:41:20;103688.28;;;2.18;100.00
32033;BME280;31720;52.638;9.216;2023-01-24T00:44:21;103684.13;;;2.25;100.00
32033;BME280;31720;52.638;9.216;2023-01-24T00:47:25;103676.34;;;2.25;100.00
32033;BME280;31720;52.638;9.216;2023-01-24T00:50:26;103678.03;;;2.23;100.00
32033;BME280;31720;52.638;9.216;2023-01-24T00:53:27;103671.59;;;2.10;100.00
32033;BME280;31720;52.638;9.216;2023-01-24T00:56:29;103668.28;;;2.16;100.00
32033;BME280;31720;52.638;9.216;2023-01-24T00:59:30;103667.53;;;2.20;100.00
32033;BME280;31720;52.638;9.216;2023-01-24T01:02:33;103674.47;;;2.21;100.00
32033;BME280;31720;52.638;9.216;2023-01-24T01:05:35;103665.06;;;2.23;100.00
32033;BME280;31720;52.638;9.216;2023-01-24T01:08:36;103683.88;;;2.17;100.00
32033;BME280;31720;52.638;9.216;2023-01-24T01:11:37;103680.47;;;2.18;100.00
32033;BME280;31720;52.638;9.216;2023-01-24T01:14:41;103677.78;;;2.15;100.00
32033;BME280;31720;52.638;9.216;2023-01-24T01:17:44;103674.34;;;2.16;100.00
32033;BME280;31720;52.638;9.216;2023-01-24T01:20:48;103675.38;;;2.21;100.00
32033;BME280;31720;52.638;9.216;2023-01-24T01:23:50;103664.97;;;2.21;100.00
32033;BME280;31720;52.638;9.216;2023-01-24T01:26:51;103670.91;;;2.17;100.00
32033;BME280;31720;52.638;9.216;2023-01-24T01:29:53;103681.38;;;2.19;100.00
32033;BME280;31720;52.638;9.216;2023-01-24T01:32:55;103679.56;;;2.18;100.00
32033;BME280;31720;52.638;9.216;2023-01-24T01:35:57;103670.00;;;2.15;100.00
32033;BME280;31720;52.638;9.216;2023-01-24T01:38:58;103664.66;;;2.09;100.00
32033;BME280;31720;52.638;9.216;2023-01-24T01:41:59;103670.78;;;2.13;100.00
32033;BME280;31720;52.638;9.216;2023-01-24T01:45:29;103661.41;;;2.18;100.00
32033;BME280;31720;52.638;9.216;2023-01-24T01:48:37;103666.66;;;2.19;100.00
32033;BME280;31720;52.638;9.216;2023-01-24T01:51:43;103664.19;;;2.24;100.00
32033;BME280;31720;52.638;9.216;2023-01-24T01:54:47;103667.53;;;2.20;100.00
32033;BME280;31720;52.638;9.216;2023-01-24T01:57:51;103663.97;;;2.16;100.00
32033;BME280;31720;52.638;9.216;2023-01-24T02:00:53;103673.72;;;2.23;100.00
32033;BME280;31720;52.638;9.216;2023-01-24T02:04:01;103660.00;;;2.27;100.00
32033;BME280;31720;52.638;9.216;2023-01-24T02:07:09;103657.25;;;2.23;100.00
32033;BME280;31720;52.638;9.216;2023-01-24T02:10:12;103662.31;;;2.18;100.00
32033;BME280;31720;52.638;9.216;2023-01-24T02:13:13;103653.69;;;2.19;100.00
32033;BME280;31720;52.638;9.216;2023-01-24T02:16:15;103653.75;;;2.22;100.00
32033;BME280;31720;52.638;9.216;2023-01-24T02:19:26;103655.47;;;2.22;100.00
32033;BME280;31720;52.638;9.216;2023-01-24T02:22:38;103649.47;;;2.23;100.00
32033;BME280;31720;52.638;9.216;2023-01-24T02:25:45;103666.34;;;2.09;100.00
32033;BME280;31720;52.638;9.216;2023-01-24T02:28:51;103655.09;;;2.08;100.00
32033;BME280;31720;52.638;9.216;2023-01-24T02:31:56;103658.53;;;2.07;100.00
32033;BME280;31720;52.638;9.216;2023-01-24T02:34:58;103661.22;;;2.10;100.00
32033;BME280;31720;52.638;9.216;2023-01-24T02:38:00;103650.78;;;2.09;100.00
32033;BME280;31720;52.638;9.216;2023-01-24T02:41:04;103658.66;;;2.12;100.00
32033;BME280;31720;52.638;9.216;2023-01-24T02:44:12;103657.06;;;2.17;100.00
32033;BME280;31720;52.638;9.216;2023-01-24T02:47:14;103656.94;;;2.12;100.00
32033;BME280;31720;52.638;9.216;2023-01-24T02:50:15;103644.94;;;2.16;100.00
32033;BME280;31720;52.638;9.216;2023-01-24T02:53:17;103644.03;;;2.14;100.00
32033;BME280;31720;52.638;9.216;2023-01-24T02:56:29;103645.91;;;2.19;100.00
32033;BME280;31720;52.638;9.216;2023-01-24T02:59:49;103644.09;;;2.17;100.00
32033;BME280;31720;52.638;9.216;2023-01-24T03:02:50;103644.94;;;2.16;100.00
32033;BME280;31720;52.638;9.216;2023-01-24T03:05:51;103641.97;;;2.02;100.00
32033;BME280;31720;52.638;9.216;2023-01-24T03:08:57;103640.91;;;1.95;100.00
32033;BME280;31720;52.638;9.216;2023-01-24T03:11:59;103641.19;;;2.05;100.00
32033;BME280;31720;52.638;9.216;2023-01-24T03:15:20;103647.13;;;2.00;100.00
32033;BME280;31720;52.638;9.216;2023-01-24T03:18:38;103649.84;;;2.05;100.00
32033;BME280;31720;52.638;9.216;2023-01-24T03:21:57;103650.78;;;2.09;100.00
32033;BME280;31720;52.638;9.216;2023-01-24T03:25:16;103652.44;;;2.05;100.00
32033;BME280;31720;52.638;9.216;2023-01-24T03:28:35;103646.00;;;1.92;100.00
32033;BME280;31720;52.638;9.216;2023-01-24T03:31:55;103649.72;;;2.00;100.00
32033;BME280;31720;52.638;9.216;2023-01-24T03:35:14;103656.63;;;2.00;100.00
32033;BME280;31720;52.638;9.216;2023-01-24T03:38:15;103661.78;;;2.00;100.00
32033;BME280;31720;52.638;9.216;2023-01-24T03:41:34;103656.50;;;1.97;100.00
32033;BME280;31720;52.638;9.216;2023-01-24T03:44:35;103663.56;;;2.01;100.00
32033;BME280;31720;52.638;9.216;2023-01-24T03:47:38;103660.97;;;2.01;100.00
32033;BME280;31720;52.638;9.216;2023-01-24T03:50:41;103664.59;;;2.08;100.00
32033;BME280;31720;52.638;9.216;2023-01-24T03:54:01;103670.66;;;2.08;100.00
32033;BME280;31720;52.638;9.216;2023-01-24T03:57:02;103668.06;;;2.08;100.00
32033;BME280;31720;52.638;9.216;2023-01-24T04:00:04;103666.16;;;2.01;100.00
32033;BME280;31720;52.638;9.216;2023-01-24T04:03:07;103674.56;;;1.94;100.00
32033;BME280;31720;52.638;9.216;2023-01-24T04:06:08;103664.38;;;2.00;100.00
32033;BME280;31720;52.638;9.216;2023-01-24T04:09:10;103658.94;;;1.91;100.00
32033;BME280;31720;52.638;9.216;2023-01-24T04:12:11;103660.81;;;1.96;100.00
32033;BME280;31720;52.638;9.216;2023-01-24T04:15:16;103666.66;;;1.89;100.00
32033;BME280;31720;52.638;9.216;2023-01-24T04:18:19;103660.81;;;1.96;100.00
32033;BME280;31720;52.638;9.216;2023-01-24T04:21:20;103658.94;;;1.91;100.00
32033;BME280;31720;52.638;9.216;2023-01-24T04:24:22;103668.41;;;1.90;100.00
32033;BME280;31720;52.638;9.216;2023-01-24T04:27:23;103665.94;;;1.95;100.00
32033;BME280;31720;52.638;9.216;2023-01-24T04:30:24;103663.41;;;1.96;100.00
32033;BME280;31720;52.638;9.216;2023-01-24T04:33:27;103661.66;;;1.95;100.00
32033;BME280;31720;52.638;9.216;2023-01-24T04:36:28;103675.53;;;1.97;100.00
32033;BME280;31720;52.638;9.216;2023-01-24T04:39:30;103672.72;;;1.90;100.00
32033;BME280;31720;52.638;9.216;2023-01-24T04:42:31;103673.66;;;1.92;100.00
32033;BME280;31720;52.638;9.216;2023-01-24T04:45:32;103671.13;;;1.95;100.00
32033;BME280;31720;52.638;9.216;2023-01-24T04:48:35;103679.81;;;1.95;100.00
32033;BME280;31720;52.638;9.216;2023-01-24T04:51:36;103677.22;;;1.95;100.00
32033;BME280;31720;52.638;9.216;2023-01-24T04:54:41;103685.81;;;1.94;100.00
32033;BME280;31720;52.638;9.216;2023-01-24T04:57:43;103672.06;;;1.97;100.00
32033;BME280;31720;52.638;9.216;2023-01-24T05:00:44;103678.91;;;1.95;100.00
32033;BME280;31720;52.638;9.216;2023-01-24T05:03:47;103670.13;;;1.90;100.00
32033;BME280;31720;52.638;9.216;2023-01-24T05:06:48;103680.47;;;1.88;100.00
32033;BME280;31720;52.638;9.216;2023-01-24T05:09:49;103679.59;;;1.88;100.00
32033;BME280;31720;52.638;9.216;2023-01-24T05:12:51;103678.03;;;1.94;100.00
32033;BME280;31720;52.638;9.216;2023-01-24T05:15:52;103672.84;;;1.94;100.00
32033;BME280;31720;52.638;9.216;2023-01-24T05:18:55;103671.22;;;1.98;100.00
32033;BME280;31720;52.638;9.216;2023-01-24T05:21:56;103675.38;;;1.91;100.00
32033;BME280;31720;52.638;9.216;2023-01-24T05:24:57;103675.41;;;1.93;100.00
32033;BME280;31720;52.638;9.216;2023-01-24T05:27:59;103680.41;;;1.87;100.00
32033;BME280;31720;52.638;9.216;2023-01-24T05:31:01;103678.56;;;1.83;100.00
32033;BME280;31720;52.638;9.216;2023-01-24T05:34:04;103687.13;;;1.80;100.00
32033;BME280;31720;52.638;9.216;2023-01-24T05:37:06;103682.91;;;1.84;100.00
32033;BME280;31720;52.638;9.216;2023-01-24T05:40:08;103687.13;;;1.80;100.00
32033;BME280;31720;52.638;9.216;2023-01-24T05:43:09;103681.81;;;1.77;100.00
32033;BME280;31720;52.638;9.216;2023-01-24T05:46:12;103700.13;;;1.82;100.00
32033;BME280;31720;52.638;9.216;2023-01-24T05:49:15;103701.84;;;1.81;100.00
32033;BME280;31720;52.638;9.216;2023-01-24T05:52:17;103701.84;;;1.81;100.00
32033;BME280;31720;52.638;9.216;2023-01-24T05:55:21;103693.88;;;1.75;100.00
32033;BME280;31720;52.638;9.216;2023-01-24T05:58:22;103692.31;;;1.80;100.00
32033;BME280;31720;52.638;9.216;2023-01-24T06:01:24;103690.56;;;1.79;100.00
32033;BME280;31720;52.638;9.216;2023-01-24T06:04:26;103695.78;;;1.81;100.00
32033;BME280;31720;52.638;9.216;2023-01-24T06:07:27;103695.00;;;1.83;100.00
32033;BME280;31720;52.638;9.216;2023-01-24T06:10:29;103695.84;;;1.82;100.00
32033;BME280;31720;52.638;9.216;2023-01-24T06:13:30;103699.34;;;1.84;100.00
32033;BME280;31720;52.638;9.216;2023-01-24T06:16:32;103705.25;;;1.80;100.00
32033;BME280;31720;52.638;9.216;2023-01-24T06:19:35;103706.94;;;1.78;100.00
32033;BME280;31720;52.638;9.216;2023-01-24T06:22:44;103720.09;;;1.84;100.00
32033;BME280;31720;52.638;9.216;2023-01-24T06:25:46;103713.78;;;1.76;100.00
32033;BME280;31720;52.638;9.216;2023-01-24T06:28:48;103713.91;;;1.81;100.00
32033;BME280;31720;52.638;9.216;2023-01-24T06:32:02;103715.66;;;1.82;100.00
32033;BME280;31720;52.638;9.216;2023-01-24T06:35:13;103707.03;;;1.81;100.00
32033;BME280;31720;52.638;9.216;2023-01-24T06:38:19;103713.88;;;1.79;100.00
32033;BME280;31720;52.638;9.216;2023-01-24T06:41:21;103719.69;;;1.72;100.00
32033;BME280;31720;52.638;9.216;2023-01-24T06:44:24;103723.22;;;1.74;100.00
32033;BME280;31720;52.638;9.216;2023-01-24T06:47:25;103718.81;;;1.71;100.00
32033;BME280;31720;52.638;9.216;2023-01-24T06:50:29;103713.84;;;1.77;100.00
32033;BME280;31720;52.638;9.216;2023-01-24T06:53:32;103719.66;;;1.70;100.00
32033;BME280;31720;52.638;9.216;2023-01-24T06:56:34;103714.34;;;1.66;100.00
32033;BME280;31720;52.638;9.216;2023-01-24T06:59:35;103715.16;;;1.65;100.00
32033;BME280;31720;52.638;9.216;2023-01-24T07:02:37;103714.91;;;1.57;100.00
32033;BME280;31720;52.638;9.216;2023-01-24T07:05:39;103720.22;;;1.60;100.00
32033;BME280;31720;52.638;9.216;2023-01-24T07:08:41;103723.78;;;1.64;100.00
32033;BME280;31720;52.638;9.216;2023-01-24T07:11:42;103722.84;;;1.62;100.00
32033;BME280;31720;52.638;9.216;2023-01-24T07:14:43;103730.31;;;1.52;100.00
32033;BME280;31720;52.638;9.216;2023-01-24T07:17:45;103726.22;;;1.59;100.00
32033;BME280;31720;52.638;9.216;2023-01-24T07:20:48;103740.56;;;1.49;100.00
32033;BME280;31720;52.638;9.216;2023-01-24T07:23:53;103733.72;;;1.50;100.00
32033;BME280;31720;52.638;9.216;2023-01-24T07:26:57;103737.09;;;1.49;100.00
32033;BME280;31720;52.638;9.216;2023-01-24T07:29:58;103734.28;;;1.41;100.00
32033;BME280;31720;52.638;9.216;2023-01-24T07:32:59;103742.97;;;1.43;100.00
32033;BME280;31720;52.638;9.216;2023-01-24T07:36:10;103749.75;;;1.40;100.00
32033;BME280;31720;52.638;9.216;2023-01-24T07:39:12;103755.91;;;1.42;100.00
32033;BME280;31720;52.638;9.216;2023-01-24T07:42:13;103759.56;;;1.48;100.00
32033;BME280;31720;52.638;9.216;2023-01-24T07:45:14;103761.88;;;1.41;100.00
32033;BME280;31720;52.638;9.216;2023-01-24T07:48:16;103755.31;;;1.50;100.00
32033;BME280;31720;52.638;9.216;2023-01-24T07:51:18;103753.75;;;1.56;100.00
32033;BME280;31720;52.638;9.216;2023-01-24T07:54:20;103764.84;;;1.51;100.00
32033;BME280;31720;52.638;9.216;2023-01-24T07:57:21;103769.03;;;1.48;100.00
32033;BME280;31720;52.638;9.216;2023-01-24T08:00:22;103763.13;;;1.52;100.00
32033;BME280;31720;52.638;9.216;2023-01-24T08:03:24;103760.41;;;1.47;100.00
32033;BME280;31720;52.638;9.216;2023-01-24T08:06:26;103771.53;;;1.45;100.00
32033;BME280;31720;52.638;9.216;2023-01-24T08:09:28;103772.31;;;1.42;100.00
32033;BME280;31720;52.638;9.216;2023-01-24T08:12:30;103770.34;;;1.35;100.00
32033;BME280;31720;52.638;9.216;2023-01-24T08:15:31;103779.09;;;1.39;100.00
32033;BME280;31720;52.638;9.216;2023-01-24T08:18:32;103778.19;;;1.37;100.00
32033;BME280;31720;52.638;9.216;2023-01-24T08:21:35;103777.38;;;1.39;100.00
32033;BME280;31720;52.638;9.216;2023-01-24T08:24:36;103790.59;;;1.47;100.00
32033;BME280;31720;52.638;9.216;2023-01-24T08:27:39;103790.66;;;1.48;100.00
32033;BME280;31720;52.638;9.216;2023-01-24T08:30:41;103793.53;;;1.58;100.00
32033;BME280;31720;52.638;9.216;2023-01-24T08:33:42;103798.81;;;1.59;100.00
32033;BME280;31720;52.638;9.216;2023-01-24T08:36:45;103789.94;;;1.52;100.00
32033;BME280;31720;52.638;9.216;2023-01-24T08:39:46;103789.59;;;1.42;100.00
32033;BME280;31720;52.638;9.216;2023-01-24T08:42:48;103788.94;;;1.49;100.00
32033;BME280;31720;52.638;9.216;2023-01-24T08:45:53;103790.31;;;1.38;100.00
32033;BME280;31720;52.638;9.216;2023-01-24T08:48:55;103792.66;;;1.32;100.00
32033;BME280;31720;52.638;9.216;2023-01-24T08:51:57;103790.34;;;1.39;100.00
32033;BME280;31720;52.638;9.216;2023-01-24T08:54:59;103787.06;;;1.45;100.00
32033;BME280;31720;52.638;9.216;2023-01-24T08:58:01;103784.59;;;1.48;100.00
32033;BME280;31720;52.638;9.216;2023-01-24T09:01:05;103798.22;;;1.42;100.00
32033;BME280;31720;52.638;9.216;2023-01-24T09:04:07;103803.53;;;1.45;100.00
32033;BME280;31720;52.638;9.216;2023-01-24T09:07:11;103801.75;;;1.44;100.00
32033;BME280;31720;52.638;9.216;2023-01-24T09:10:12;103811.06;;;1.39;100.00
32033;BME280;31720;52.638;9.216;2023-01-24T09:13:14;103808.53;;;1.41;100.00
32033;BME280;31720;52.638;9.216;2023-01-24T09:16:15;103811.88;;;1.37;100.00
32033;BME280;31720;52.638;9.216;2023-01-24T09:19:16;103808.22;;;1.32;100.00
32033;BME280;31720;52.638;9.216;2023-01-24T09:22:19;103815.09;;;1.31;100.00
32033;BME280;31720;52.638;9.216;2023-01-24T09:25:20;103817.94;;;1.37;100.00
32033;BME280;31720;52.638;9.216;2023-01-24T09:28:22;103815.38;;;1.39;100.00
32033;BME280;31720;52.638;9.216;2023-01-24T09:31:23;103816.22;;;1.38;100.00
32033;BME280;31720;52.638;9.216;2023-01-24T09:34:25;103817.03;;;1.37;100.00
32033;BME280;31720;52.638;9.216;2023-01-24T09:37:27;103814.94;;;1.26;100.00
32033;BME280;31720;52.638;9.216;2023-01-24T09:40:35;103813.88;;;1.20;100.00
32033;BME280;31720;52.638;9.216;2023-01-24T09:43:49;103815.78;;;1.25;100.00
32033;BME280;31720;52.638;9.216;2023-01-24T09:46:51;103826.47;;;1.35;100.00
32033;BME280;31720;52.638;9.216;2023-01-24T09:49:56;103821.56;;;1.42;100.00
32033;BME280;31720;52.638;9.216;2023-01-24T09:52:59;103828.22;;;1.36;100.00
32033;BME280;31720;52.638;9.216;2023-01-24T09:56:03;103822.31;;;1.40;100.00
32033;BME280;31720;52.638;9.216;2023-01-24T09:59:12;103818.69;;;1.35;100.00
32033;BME280;31720;52.638;9.216;2023-01-24T10:02:18;103817.69;;;1.31;100.00
32033;BME280;31720;52.638;9.216;2023-01-24T10:05:20;103813.63;;;1.38;100.00
32033;BME280;31720;52.638;9.216;2023-01-24T10:08:31;103806.03;;;1.44;100.00
32033;BME280;31720;52.638;9.216;2023-01-24T10:11:44;103806.78;;;1.40;100.00
32033;BME280;31720;52.638;9.216;2023-01-24T10:14:57;103805.84;;;1.38;100.00
32033;BME280;31720;52.638;9.216;2023-01-24T10:18:13;103813.06;;;1.46;100.00
32033;BME280;31720;52.638;9.216;2023-01-24T10:21:36;103809.44;;;1.41;100.00
32033;BME280;31720;52.638;9.216;2023-01-24T10:24:48;103811.06;;;1.39;100.00
32033;BME280;31720;52.638;9.216;2023-01-24T10:27:53;103807.72;;;1.42;100.00
32033;BME280;31720;52.638;9.216;2023-01-24T10:31:02;103805.28;;;1.46;100.00
32033;BME280;31720;52.638;9.216;2023-01-24T10:34:10;103813.78;;;1.42;100.00
32033;BME280;31720;52.638;9.216;2023-01-24T10:37:19;103811.78;;;1.35;100.00
32033;BME280;31720;52.638;9.216;2023-01-24T10:40:23;103805.00;;;1.39;100.00
32033;BME280;31720;52.638;9.216;2023-01-24T10:43:28;103798.06;;;1.38;100.00
32033;BME280;31720;52.638;9.216;2023-01-24T10:46:54;103797.97;;;1.35;100.00
32033;BME280;31720;52.638;9.216;2023-01-24T10:50:01;103797.03;;;1.33;100.00
32033;BME280;31720;52.638;9.216;2023-01-24T10:53:12;103792.16;;;1.42;100.00
32033;BME280;31720;52.638;9.216;2023-01-24T10:56:17;103793.94;;;1.43;100.00
32033;BME280;31720;52.638;9.216;2023-01-24T10:59:19;103789.50;;;1.40;100.00
32033;BME280;31720;52.638;9.216;2023-01-24T11:02:22;103784.13;;;1.34;100.00
32033;BME280;31720;52.638;9.216;2023-01-24T11:05:25;103790.00;;;1.29;100.00
32033;BME280;31720;52.638;9.216;2023-01-24T11:08:37;103780.53;;;1.31;100.00
32033;BME280;31720;52.638;9.216;2023-01-24T11:11:42;103775.44;;;1.32;100.00
32033;BME280;31720;52.638;9.216;2023-01-24T11:14:47;103782.78;;;1.45;100.00
32033;BME280;31720;52.638;9.216;2023-01-24T11:17:53;103780.84;;;1.40;100.00
32033;BME280;31720;52.638;9.216;2023-01-24T11:21:07;103778.19;;;1.37;100.00
32033;BME280;31720;52.638;9.216;2023-01-24T11:24:14;103769.34;;;1.32;100.00
32033;BME280;31720;52.638;9.216;2023-01-24T11:27:19;103773.63;;;1.30;100.00
32033;BME280;31720;52.638;9.216;2023-01-24T11:30:21;103764.41;;;1.38;100.00
32033;BME280;31720;52.638;9.216;2023-01-24T11:33:39;103757.53;;;1.40;100.00
32033;BME280;31720;52.638;9.216;2023-01-24T11:36:52;103761.13;;;1.43;100.00
32033;BME280;31720;52.638;9.216;2023-01-24T11:40:01;103764.44;;;1.39;100.00
32033;BME280;31720;52.638;9.216;2023-01-24T11:43:14;103759.25;;;1.39;100.00
32033;BME280;31720;52.638;9.216;2023-01-24T11:46:28;103749.16;;;1.21;100.00
32033;BME280;31720;52.638;9.216;2023-01-24T11:49:46;103746.69;;;1.24;100.00
32033;BME280;31720;52.638;9.216;2023-01-24T11:53:01;103742.78;;;1.37;100.00
32033;BME280;31720;52.638;9.216;2023-01-24T11:56:15;103729.91;;;1.40;100.00
32033;BME280;31720;52.638;9.216;2023-01-24T11:59:35;103731.75;;;1.43;100.00
32033;BME280;31720;52.638;9.216;2023-01-24T12:02:56;103721.41;;;1.44;100.00
32033;BME280;31720;52.638;9.216;2023-01-24T12:06:13;103714.59;;;1.46;100.00
32033;BME280;31720;52.638;9.216;2023-01-24T12:09:20;103718.66;;;1.40;100.00
32033;BME280;31720;52.638;9.216;2023-01-24T12:12:25;103712.66;;;1.41;100.00
32033;BME280;31720;52.638;9.216;2023-01-24T12:15:38;103704.06;;;1.42;100.00
32033;BME280;31720;52.638;9.216;2023-01-24T12:19:01;103704.81;;;1.38;100.00
32033;BME280;31720;52.638;9.216;2023-01-24T12:22:10;103702.81;;;1.31;100.00
32033;BME280;31720;52.638;9.216;2023-01-24T12:25:20;103695.13;;;1.32;100.00
32033;BME280;31720;52.638;9.216;2023-01-24T12:28:28;103697.09;;;1.41;100.00
32033;BME280;31720;52.638;9.216;2023-01-24T12:31:39;103695.34;;;1.40;100.00
32033;BME280;31720;52.638;9.216;2023-01-24T12:34:45;103692.72;;;1.38;100.00
32033;BME280;31720;52.638;9.216;2023-01-24T12:37:55;103695.34;;;1.40;100.00
32033;BME280;31720;52.638;9.216;2023-01-24T12:41:05;103692.91;;;1.44;100.00
32033;BME280;31720;52.638;9.216;2023-01-24T12:44:23;103696.50;;;1.48;100.00
32033;BME280;31720;52.638;9.216;2023-01-24T12:47:34;103695.56;;;1.46;100.00
32033;BME280;31720;52.638;9.216;2023-01-24T12:50:40;103687.94;;;1.50;100.00
32033;BME280;31720;52.638;9.216;2023-01-24T12:53:55;103697.28;;;1.45;100.00
32033;BME280;31720;52.638;9.216;2023-01-24T12:57:00;103695.66;;;1.49;100.00
32033;BME280;31720;52.638;9.216;2023-01-24T13:00:14;103695.44;;;1.41;100.00
32033;BME280;31720;52.638;9.216;2023-01-24T13:03:40;103698.16;;;1.46;100.00
32033;BME280;31720;52.638;9.216;2023-01-24T13:06:54;103702.47;;;1.45;100.00
32033;BME280;31720;52.638;9.216;2023-01-24T13:10:05;103705.88;;;1.44;100.00
32033;BME280;31720;52.638;9.216;2023-01-24T13:13:14;103710.97;;;1.41;100.00
32033;BME280;31720;52.638;9.216;2023-01-24T13:16:40;103705.72;;;1.40;100.00
32033;BME280;31720;52.638;9.216;2023-01-24T13:20:04;103705.41;;;1.31;100.00
32033;BME280;31720;52.638;9.216;2023-01-24T13:23:23;103715.16;;;1.38;100.00
32033;BME280;31720;52.638;9.216;2023-01-24T13:26:40;103711.47;;;1.31;100.00
32033;BME280;31720;52.638;9.216;2023-01-24T13:30:05;103708.97;;;1.33;100.00
32033;BME280;31720;52.638;9.216;2023-01-24T13:33:16;103702.69;;;1.26;100.00
32033;BME280;31720;52.638;9.216;2023-01-24T13:36:22;103700.97;;;1.26;100.00
32033;BME280;31720;52.638;9.216;2023-01-24T13:39:34;103711.97;;;1.19;100.00
32033;BME280;31720;52.638;9.216;2023-01-24T13:42:38;103702.53;;;1.21;100.00
32033;BME280;31720;52.638;9.216;2023-01-24T13:45:46;103705.75;;;1.14;100.00
32033;BME280;31720;52.638;9.216;2023-01-24T13:48:54;103700.94;;;1.25;100.00
32033;BME280;31720;52.638;9.216;2023-01-24T13:51:58;103691.41;;;1.24;100.00
32033;BME280;31720;52.638;9.216;2023-01-24T13:55:00;103687.53;;;1.11;100.00
32033;BME280;31720;52.638;9.216;2023-01-24T13:58:19;103695.91;;;1.04;100.00
32033;BME280;31720;52.638;9.216;2023-01-24T14:01:22;103687.69;;;1.16;100.00
32033;BME280;31720;52.638;9.216;2023-01-24T14:04:38;103695.28;;;1.11;100.00
32033;BME280;31720;52.638;9.216;2023-01-24T14:07:41;103687.88;;;1.22;100.00
32033;BME280;31720;52.638;9.216;2023-01-24T14:10:45;103679.38;;;1.26;100.00
32033;BME280;31720;52.638;9.216;2023-01-24T14:13:59;103678.53;;;1.27;100.00
32033;BME280;31720;52.638;9.216;2023-01-24T14:20:38;103679.38;;;1.26;100.00
32033;BME280;31720;52.638;9.216;2023-01-24T14:23:48;103683.63;;;1.24;100.00
32033;BME280;31720;52.638;9.216;2023-01-24T14:26:51;103686.13;;;1.21;100.00
32033;BME280;31720;52.638;9.216;2023-01-24T14:30:00;103686.69;;;1.12;100.00
32033;BME280;31720;52.638;9.216;2023-01-24T14:33:11;103680.94;;;1.21;100.00
32033;BME280;31720;52.638;9.216;2023-01-24T14:36:24;103686.41;;;1.30;100.00
32033;BME280;31720;52.638;9.216;2023-01-24T14:39:29;103674.34;;;1.31;100.00
32033;BME280;31720;52.638;9.216;2023-01-24T14:42:30;103681.22;;;1.30;100.00
32033;BME280;31720;52.638;9.216;2023-01-24T14:45:33;103683.78;;;1.29;100.00
32033;BME280;31720;52.638;9.216;2023-01-24T14:48:35;103683.72;;;1.27;100.00
32033;BME280;31720;52.638;9.216;2023-01-24T14:51:42;103685.38;;;1.25;100.00
32033;BME280;31720;52.638;9.216;2023-01-24T14:54:46;103675.06;;;1.26;100.00
32033;BME280;31720;52.638;9.216;2023-01-24T14:57:48;103684.41;;;1.21;100.00
32033;BME280;31720;52.638;9.216;2023-01-24T15:00:50;103675.63;;;1.18;100.00
32033;BME280;31720;52.638;9.216;2023-01-24T15:03:53;103683.25;;;1.13;100.00
32033;BME280;31720;52.638;9.216;2023-01-24T15:07:04;103677.88;;;1.07;100.00
32033;BME280;31720;52.638;9.216;2023-01-24T15:10:13;103679.19;;;1.20;100.00
32033;BME280;31720;52.638;9.216;2023-01-24T15:13:18;103683.41;;;1.18;100.00
32033;BME280;31720;52.638;9.216;2023-01-24T15:16:22;103686.94;;;1.20;100.00
32033;BME280;31720;52.638;9.216;2023-01-24T15:19:25;103684.34;;;1.20;100.00
32033;BME280;31720;52.638;9.216;2023-01-24T15:22:29;103684.97;;;1.13;100.00
32033;BME280;31720;52.638;9.216;2023-01-24T15:25:34;103683.03;;;1.06;100.00
32033;BME280;31720;52.638;9.216;2023-01-24T15:28:35;103689.03;;;1.05;100.00
32033;BME280;31720;52.638;9.216;2023-01-24T15:31:48;103685.00;;;0.87;100.00
32033;BME280;31720;52.638;9.216;2023-01-24T15:34:49;103686.19;;;0.97;100.00
32033;BME280;31720;52.638;9.216;2023-01-24T15:38:16;103682.22;;;1.08;100.00
32033;BME280;31720;52.638;9.216;2023-01-24T15:41:23;103682.50;;;1.16;100.00
32033;BME280;31720;52.638;9.216;2023-01-24T15:44:45;103685.09;;;1.16;100.00
32033;BME280;31720;52.638;9.216;2023-01-24T15:47:46;103685.81;;;1.12;100.00
32033;BME280;31720;52.638;9.216;2023-01-24T15:50:50;103670.28;;;1.12;100.00
32033;BME280;31720;52.638;9.216;2023-01-24T15:54:09;103675.34;;;1.09;100.00
32033;BME280;31720;52.638;9.216;2023-01-24T15:57:26;103677.59;;;0.98;100.00
32033;BME280;31720;52.638;9.216;2023-01-24T16:00:28;103674.28;;;1.02;100.00
32033;BME280;31720;52.638;9.216;2023-01-24T16:03:30;103672.75;;;1.09;100.00
32033;BME280;31720;52.638;9.216;2023-01-24T16:06:31;103677.00;;;1.07;100.00
32033;BME280;31720;52.638;9.216;2023-01-24T16:09:33;103673.53;;;1.06;100.00
32033;BME280;31720;52.638;9.216;2023-01-24T16:12:35;103672.66;;;1.06;100.00
32033;BME280;31720;52.638;9.216;2023-01-24T16:15:37;103684.16;;;1.14;100.00